Time;durP1;ratioP1;P1;durP2;ratioP2;P2;SDS_P1;SDS_P2;PMS_P1;PMS_P2;Temp;Humidity;BMP_temperature;BMP_pressure;BME280_temperature;BME280_humidity;BME280_pressure;Samples;Min_cycle;Max_cycle;Signal;HPM_P1;HPM_P2
2022/05/05 00:01:46;;;;;;;10.50;9.40;;;18.20;59.90;;;;;;5041130;28;20441;-41
2022/05/05 00:04:11;;;;;;;11.17;9.60;;;18.30;59.60;;;;;;5046487;28;20633;-41
2022/05/05 00:06:37;;;;;;;9.63;8.70;;;18.40;59.70;;;;;;5052399;28;20192;-41
2022/05/05 00:09:04;;;;;;;10.10;9.30;;;18.40;59.60;;;;;;5049207;28;20200;-41
2022/05/05 00:14:23;;;;;;;8.77;8.03;;;18.30;59.90;;;;;;5042812;28;20446;-41
2022/05/05 00:16:54;;;;;;;10.57;9.53;;;18.40;60.00;;;;;;5043633;28;20430;-41
2022/05/05 00:19:20;;;;;;;9.67;8.70;;;18.40;59.60;;;;;;5051130;28;21086;-41
2022/05/05 00:21:46;;;;;;;10.10;9.30;;;18.40;59.60;;;;;;5057933;28;20442;-41
2022/05/05 00:24:12;;;;;;;9.13;8.17;;;18.50;59.50;;;;;;5051562;28;20435;-41
2022/05/05 00:26:37;;;;;;;9.50;8.50;;;18.50;59.30;;;;;;5058427;28;20191;-41
2022/05/05 00:29:03;;;;;;;9.63;8.63;;;18.50;59.20;;;;;;5056388;28;20439;-41
2022/05/05 00:31:29;;;;;;;10.33;9.43;;;18.60;59.20;;;;;;5058933;28;20192;-41
2022/05/05 00:33:54;;;;;;;10.13;9.23;;;18.70;59.20;;;;;;5052474;28;20207;-41
2022/05/05 00:36:20;;;;;;;8.60;7.90;;;18.70;59.10;;;;;;5056831;28;20207;-41
2022/05/05 00:38:46;;;;;;;9.07;8.13;;;18.80;58.90;;;;;;5051040;28;20694;-41
2022/05/05 00:41:11;;;;;;;12.00;9.10;;;18.80;58.80;;;;;;5048282;28;20330;-41
2022/05/05 00:43:37;;;;;;;10.27;9.27;;;18.70;58.80;;;;;;5048139;28;20231;-41
2022/05/05 00:46:03;;;;;;;9.73;8.83;;;18.50;58.90;;;;;;5045862;28;20198;-41
2022/05/05 00:48:29;;;;;;;9.43;8.60;;;18.50;59.30;;;;;;5049104;28;20196;-41
2022/05/05 00:50:55;;;;;;;9.70;8.80;;;18.70;59.30;;;;;;5050964;28;20448;-41
2022/05/05 00:53:22;;;;;;;9.77;8.90;;;18.70;58.90;;;;;;5051874;28;20196;-41
2022/05/05 00:55:51;;;;;;;9.97;9.17;;;18.80;58.70;;;;;;5047534;28;20439;-41
2022/05/05 00:58:18;;;;;;;13.00;9.60;;;18.80;58.50;;;;;;5048215;28;20842;-41
2022/05/05 01:00:44;;;;;;;9.37;8.57;;;18.80;58.40;;;;;;5051816;28;20435;-41
2022/05/05 01:03:12;;;;;;;10.87;9.87;;;18.80;58.50;;;;;;5060604;28;20446;-41
2022/05/05 01:05:39;;;;;;;10.47;9.50;;;18.90;58.30;;;;;;5059935;28;20438;-41
2022/05/05 01:08:05;;;;;;;13.10;9.70;;;18.90;58.30;;;;;;5051500;28;20435;-41
2022/05/05 01:10:32;;;;;;;10.10;9.20;;;18.90;58.40;;;;;;5054989;28;20891;-41
2022/05/05 01:12:58;;;;;;;10.37;9.30;;;18.90;58.30;;;;;;5060385;28;20442;-41
2022/05/05 01:15:24;;;;;;;10.63;9.73;;;18.90;58.30;;;;;;5054905;28;20426;-41
2022/05/05 01:17:50;;;;;;;10.07;9.20;;;18.90;58.20;;;;;;5048943;28;20427;-41
2022/05/05 01:20:17;;;;;;;10.80;9.80;;;18.90;58.20;;;;;;5054347;28;20485;-41
2022/05/05 01:22:43;;;;;;;10.60;9.60;;;18.90;58.20;;;;;;5056051;28;20197;-41
2022/05/05 01:28:11;;;;;;;9.57;8.70;;;18.70;58.00;;;;;;5035569;28;20232;-41
2022/05/05 01:30:38;;;;;;;10.50;9.60;;;18.60;59.00;;;;;;5038557;28;20450;-41
2022/05/05 01:33:21;;;;;;;10.53;8.73;;;18.70;58.90;;;;;;5049732;28;20465;-41
2022/05/05 01:35:50;;;;;;;9.07;8.37;;;18.70;58.80;;;;;;5048681;28;20423;-41
2022/05/05 01:38:19;;;;;;;9.63;8.83;;;18.60;58.50;;;;;;5043157;28;20440;-41
2022/05/05 01:40:47;;;;;;;10.03;9.13;;;18.70;58.60;;;;;;5035523;28;20839;-41
2022/05/05 01:43:15;;;;;;;10.37;9.37;;;18.70;58.30;;;;;;5057375;28;20909;-41
2022/05/05 01:45:41;;;;;;;10.20;9.20;;;18.80;58.10;;;;;;5048479;28;20525;-41
2022/05/05 01:48:07;;;;;;;10.40;9.50;;;18.80;58.20;;;;;;5040964;28;20783;-42
2022/05/05 01:50:33;;;;;;;10.73;9.70;;;18.70;57.80;;;;;;5043870;28;20930;-41
2022/05/05 01:53:00;;;;;;;11.70;10.17;;;18.50;58.50;;;;;;5056205;28;20442;-41
2022/05/05 01:55:26;;;;;;;11.10;10.10;;;18.40;58.40;;;;;;5053512;28;20207;-41
2022/05/05 01:57:52;;;;;;;11.07;10.17;;;18.40;58.80;;;;;;5055266;28;20435;-41
2022/05/05 02:00:18;;;;;;;12.97;11.50;;;18.50;58.70;;;;;;5048049;28;20532;-41
2022/05/05 02:02:44;;;;;;;11.50;10.40;;;18.50;58.50;;;;;;5055078;28;20188;-41
2022/05/05 02:05:11;;;;;;;12.43;11.17;;;18.50;58.50;;;;;;5057184;28;21313;-41
2022/05/05 02:07:39;;;;;;;12.87;11.77;;;18.40;58.50;;;;;;5058597;28;20432;-41
2022/05/05 02:10:10;;;;;;;13.00;11.80;;;18.40;58.80;;;;;;5057233;28;20488;-41
2022/05/05 02:12:36;;;;;;;24.10;12.93;;;18.40;58.60;;;;;;5047234;28;20438;-41
2022/05/05 02:15:06;;;;;;;10.73;9.63;;;18.40;58.00;;;;;;5062940;28;20433;-41
2022/05/05 02:17:42;;;;;;;15.93;12.47;;;18.00;59.40;;;;;;5068420;28;20499;-41
2022/05/05 02:20:11;;;;;;;14.87;13.10;;;18.00;59.70;;;;;;5050897;28;20949;-41
2022/05/05 02:22:37;;;;;;;26.77;13.70;;;18.10;59.70;;;;;;5048735;28;20431;-41
2022/05/05 02:25:03;;;;;;;18.73;13.40;;;18.00;59.70;;;;;;5059298;28;20450;-41
2022/05/05 02:27:29;;;;;;;29.00;11.97;;;18.10;59.90;;;;;;5058241;28;20552;-41
2022/05/05 02:29:54;;;;;;;13.73;12.33;;;18.20;59.60;;;;;;5054236;28;20200;-41
2022/05/05 02:32:20;;;;;;;24.00;14.10;;;18.30;59.40;;;;;;5063185;28;20674;-41
2022/05/05 02:34:46;;;;;;;13.07;11.50;;;18.30;59.00;;;;;;5058801;28;20241;-41
2022/05/05 02:39:57;;;;;;;23.43;12.80;;;18.50;58.70;;;;;;5049442;28;20489;-41
2022/05/05 02:42:22;;;;;;;28.73;12.33;;;18.40;58.30;;;;;;5051412;28;20443;-41
2022/05/05 02:44:48;;;;;;;17.13;12.27;;;18.40;58.40;;;;;;5042244;28;20440;-41
2022/05/05 02:47:14;;;;;;;26.90;12.00;;;18.40;58.60;;;;;;5064451;28;20293;-41
2022/05/05 02:49:40;;;;;;;21.47;11.47;;;18.40;58.50;;;;;;5049077;28;20189;-41
2022/05/05 02:52:07;;;;;;;18.13;11.20;;;18.30;58.30;;;;;;5053526;28;20254;-41
2022/05/05 02:54:47;;;;;;;21.00;10.67;;;18.10;58.40;;;;;;5054712;28;20438;-41
2022/05/05 02:57:15;;;;;;;44.40;12.73;;;18.10;58.60;;;;;;5053196;28;20441;-41
2022/05/05 02:59:41;;;;;;;13.33;11.40;;;18.10;58.90;;;;;;5052344;28;20475;-41
2022/05/05 03:02:07;;;;;;;26.70;12.67;;;17.90;59.00;;;;;;5051708;28;21041;-41
2022/05/05 03:04:33;;;;;;;36.47;11.73;;;18.00;59.30;;;;;;5040625;28;20215;-41
2022/05/05 03:06:59;;;;;;;13.47;11.93;;;17.90;59.50;;;;;;5048202;28;20561;-41
2022/05/05 03:09:24;;;;;;;20.63;12.47;;;17.90;59.40;;;;;;5054042;28;20196;-41
2022/05/05 03:11:50;;;;;;;23.80;12.43;;;17.90;60.40;;;;;;5059804;28;20203;-41
2022/05/05 03:14:16;;;;;;;22.47;13.67;;;17.90;59.50;;;;;;5050643;28;20192;-41
2022/05/05 03:16:41;;;;;;;39.23;13.07;;;17.80;59.70;;;;;;5051544;28;20225;-41
2022/05/05 03:19:07;;;;;;;33.53;14.70;;;17.70;59.90;;;;;;5046356;28;20244;-41
2022/05/05 03:21:32;;;;;;;16.20;13.13;;;17.30;61.50;;;;;;5039541;28;20250;-41
2022/05/05 03:23:58;;;;;;;15.70;14.10;;;17.30;62.20;;;;;;5054352;28;20604;-41
2022/05/05 03:26:24;;;;;;;16.30;14.17;;;17.50;61.90;;;;;;5037333;28;20231;-41
2022/05/05 03:28:49;;;;;;;18.57;13.67;;;17.60;61.50;;;;;;5042508;28;20208;-41
2022/05/05 03:31:15;;;;;;;21.57;13.90;;;17.80;61.10;;;;;;5056387;28;20228;-41
2022/05/05 03:33:41;;;;;;;21.43;14.00;;;17.80;60.60;;;;;;5056977;28;20193;-41
2022/05/05 03:36:06;;;;;;;17.13;12.47;;;17.90;60.50;;;;;;5056463;28;20187;-41
2022/05/05 03:38:32;;;;;;;23.00;12.40;;;17.90;60.20;;;;;;5049272;28;20224;-41
2022/05/05 03:40:58;;;;;;;16.10;14.50;;;17.80;60.30;;;;;;5035285;28;20243;-41
2022/05/05 03:43:23;;;;;;;25.97;14.57;;;17.80;60.90;;;;;;5038125;28;20644;-41
2022/05/05 03:45:49;;;;;;;49.70;15.07;;;17.90;60.00;;;;;;5049190;28;20192;-41
2022/05/05 03:48:14;;;;;;;24.63;14.40;;;17.60;59.70;;;;;;5059650;28;20649;-41
2022/05/05 03:50:40;;;;;;;60.63;14.50;;;17.30;60.40;;;;;;5056873;28;20242;-41
2022/05/05 03:53:06;;;;;;;40.03;15.07;;;17.10;61.10;;;;;;5060921;28;20192;-41
2022/05/05 03:55:31;;;;;;;44.50;13.20;;;16.90;61.60;;;;;;5034910;28;20287;-41
2022/05/05 03:57:57;;;;;;;48.63;14.60;;;16.60;62.60;;;;;;5043177;28;20189;-41
2022/05/05 04:00:23;;;;;;;18.33;14.90;;;16.40;63.90;;;;;;5049029;28;20226;-41
2022/05/05 04:05:35;;;;;;;20.40;14.47;;;16.40;64.20;;;;;;5044971;28;20451;-41
2022/05/05 04:08:02;;;;;;;18.43;14.30;;;16.30;64.70;;;;;;5037110;28;20428;-41
2022/05/05 04:10:28;;;;;;;29.30;15.00;;;16.10;65.20;;;;;;5054548;28;20473;-41
2022/05/05 04:12:55;;;;;;;86.07;16.67;;;16.20;65.50;;;;;;5046290;28;20430;-41
2022/05/05 04:15:21;;;;;;;37.53;15.47;;;16.00;65.70;;;;;;5046376;28;20860;-41
2022/05/05 04:17:47;;;;;;;32.07;15.13;;;16.00;66.30;;;;;;5051727;28;20515;-42
2022/05/05 04:20:12;;;;;;;33.03;15.90;;;15.90;66.90;;;;;;5055719;28;20573;-41
2022/05/05 04:22:38;;;;;;;19.80;15.27;;;15.70;68.20;;;;;;5047162;28;20188;-41
2022/05/05 04:25:05;;;;;;;19.20;14.37;;;15.90;67.90;;;;;;5058923;28;20227;-41
2022/05/05 04:27:31;;;;;;;19.37;15.23;;;15.90;67.70;;;;;;5056897;28;20196;-41
2022/05/05 04:29:57;;;;;;;27.77;14.33;;;16.10;67.30;;;;;;5054525;28;20465;-41
2022/05/05 04:32:22;;;;;;;16.60;14.90;;;15.80;67.70;;;;;;5051500;28;20439;-41
2022/05/05 04:34:48;;;;;;;15.97;14.37;;;15.90;68.20;;;;;;5056709;28;20528;-41
2022/05/05 04:37:14;;;;;;;21.90;14.90;;;16.00;67.60;;;;;;5039157;28;20278;-41
2022/05/05 04:39:42;;;;;;;21.67;15.40;;;15.90;67.60;;;;;;5043260;28;20216;-41
2022/05/05 04:42:08;;;;;;;19.20;15.47;;;16.00;68.00;;;;;;5042118;28;20180;-41
2022/05/05 04:44:34;;;;;;;19.10;16.17;;;16.20;67.80;;;;;;5053573;28;20445;-41
2022/05/05 04:47:01;;;;;;;20.10;14.73;;;16.30;67.10;;;;;;5048060;28;20496;-41
2022/05/05 04:49:26;;;;;;;20.63;15.77;;;16.30;66.80;;;;;;5050652;28;20533;-41
2022/05/05 04:51:52;;;;;;;16.40;14.70;;;16.30;67.10;;;;;;5051886;28;20441;-41
2022/05/05 04:54:18;;;;;;;17.83;15.10;;;16.40;67.10;;;;;;5054373;28;20210;-41
2022/05/05 04:56:43;;;;;;;18.20;15.50;;;16.50;66.90;;;;;;5053061;28;20184;-41
2022/05/05 04:59:09;;;;;;;18.83;16.57;;;16.70;66.50;;;;;;5061038;28;20287;-41
2022/05/05 05:01:35;;;;;;;21.03;15.70;;;16.80;66.10;;;;;;5048418;28;20193;-41
2022/05/05 05:04:02;;;;;;;17.90;16.00;;;16.80;65.70;;;;;;5059029;28;20294;-40
2022/05/05 05:06:37;;;;;;;17.90;16.20;;;16.80;65.50;;;;;;5061490;28;20216;-41
2022/05/05 05:09:03;;;;;;;16.97;15.20;;;16.80;65.50;;;;;;5062469;28;20446;-41
2022/05/05 05:11:28;;;;;;;16.37;14.77;;;16.60;65.40;;;;;;5049317;28;20442;-41
2022/05/05 05:13:54;;;;;;;16.53;14.83;;;16.70;65.70;;;;;;5059411;28;20189;-42
2022/05/05 05:16:20;;;;;;;18.27;16.33;;;16.80;65.80;;;;;;5047270;28;20268;-40
2022/05/05 05:18:47;;;;;;;16.20;14.27;;;16.90;65.10;;;;;;5060094;28;20235;-42
2022/05/05 05:21:13;;;;;;;17.53;15.73;;;17.00;65.60;;;;;;5038474;28;20184;-40
2022/05/05 05:23:38;;;;;;;17.37;14.33;;;17.10;64.80;;;;;;5062028;28;20437;-41
2022/05/05 05:26:04;;;;;;;15.90;14.30;;;17.10;64.50;;;;;;5048024;28;20942;-40
2022/05/05 05:28:29;;;;;;;15.93;14.23;;;17.20;64.40;;;;;;5061776;28;20306;-40
2022/05/05 05:30:55;;;;;;;17.67;14.77;;;17.20;64.50;;;;;;5047560;28;20185;-41
2022/05/05 05:33:20;;;;;;;17.83;15.80;;;17.30;64.30;;;;;;5041109;28;20203;-41
2022/05/05 05:35:46;;;;;;;15.73;14.03;;;17.40;64.10;;;;;;5050293;28;20196;-41
2022/05/05 05:38:13;;;;;;;16.77;15.13;;;17.40;63.60;;;;;;5052228;28;20187;-41
2022/05/05 05:40:38;;;;;;;16.03;14.30;;;17.40;63.50;;;;;;5042784;28;20223;-41
2022/05/05 05:43:04;;;;;;;17.27;15.57;;;17.40;62.90;;;;;;5059765;28;20904;-41
2022/05/05 05:45:30;;;;;;;16.10;14.50;;;17.30;62.90;;;;;;5055463;28;20188;-41
2022/05/05 05:47:56;;;;;;;17.90;16.10;;;17.30;63.80;;;;;;5046674;28;20185;-42
2022/05/05 05:50:22;;;;;;;18.23;16.37;;;17.50;63.30;;;;;;5049094;28;20223;-41
2022/05/05 05:52:48;;;;;;;15.53;13.93;;;17.50;63.60;;;;;;5047315;28;20434;-41
2022/05/05 05:55:14;;;;;;;19.43;15.10;;;17.40;63.30;;;;;;5058737;28;20445;-41
2022/05/05 05:57:40;;;;;;;17.20;15.40;;;17.50;63.70;;;;;;5044605;28;20531;-41
2022/05/05 06:00:06;;;;;;;14.10;12.70;;;17.60;63.60;;;;;;5059555;28;20490;-41
2022/05/05 06:05:16;;;;;;;15.00;13.50;;;17.80;63.10;;;;;;5051099;28;20449;-41
2022/05/05 06:07:42;;;;;;;15.93;14.30;;;17.90;62.50;;;;;;5055478;28;20806;-41
2022/05/05 06:10:08;;;;;;;16.93;14.23;;;18.00;62.10;;;;;;5050558;28;20187;-41
2022/05/05 06:12:33;;;;;;;12.20;10.90;;;18.10;61.90;;;;;;5053472;28;20640;-41
2022/05/05 06:14:59;;;;;;;15.20;13.60;;;18.20;61.80;;;;;;5054425;28;20280;-41
2022/05/05 06:17:24;;;;;;;14.33;13.00;;;18.20;61.50;;;;;;5063320;28;20188;-41
2022/05/05 06:19:50;;;;;;;14.30;12.97;;;18.20;61.30;;;;;;5047218;28;20312;-41
2022/05/05 06:22:16;;;;;;;16.00;14.40;;;18.20;61.20;;;;;;5061891;28;20188;-41
2022/05/05 06:24:41;;;;;;;15.63;14.13;;;18.20;61.10;;;;;;5064610;28;20271;-41
2022/05/05 06:27:07;;;;;;;15.00;13.60;;;18.30;61.00;;;;;;5063289;28;20196;-41
2022/05/05 06:29:33;;;;;;;13.60;12.20;;;18.30;61.30;;;;;;5050905;28;20204;-41
2022/05/05 06:31:58;;;;;;;13.30;11.90;;;18.40;61.20;;;;;;5059595;28;20221;-41
2022/05/05 06:34:24;;;;;;;16.60;14.37;;;18.50;61.20;;;;;;5055069;28;20196;-41
2022/05/05 06:36:49;;;;;;;16.33;14.60;;;18.50;61.00;;;;;;5058496;28;20187;-41
2022/05/05 06:39:15;;;;;;;15.57;13.97;;;18.60;60.80;;;;;;5054143;28;20632;-42
2022/05/05 06:41:40;;;;;;;15.80;14.20;;;18.60;60.50;;;;;;5052155;28;20554;-41
2022/05/05 06:44:06;;;;;;;14.33;12.97;;;18.60;60.10;;;;;;5056687;28;20267;-41
2022/05/05 06:46:32;;;;;;;14.90;13.33;;;18.70;60.30;;;;;;5056434;28;21024;-41
2022/05/05 06:48:58;;;;;;;14.50;13.00;;;18.80;60.30;;;;;;5048553;28;20505;-41
2022/05/05 06:51:24;;;;;;;15.53;14.13;;;18.80;60.40;;;;;;5047122;28;20194;-41
2022/05/05 06:53:50;;;;;;;17.63;15.77;;;18.80;60.70;;;;;;5050963;28;20193;-41
2022/05/05 06:56:15;;;;;;;16.23;13.83;;;18.80;61.90;;;;;;5057089;28;20196;-41
2022/05/05 06:58:41;;;;;;;17.03;14.93;;;18.90;61.30;;;;;;5057853;28;20296;-41
2022/05/05 07:05:23;;;;;;;14.93;12.90;;;19.00;60.90;;;;;;5052509;28;20203;-41
2022/05/05 07:06:36;;;;;;;15.70;14.20;;;19.10;61.00;;;;;;5056270;28;20451;-41
2022/05/05 07:11:45;;;;;;;14.90;13.50;;;19.20;60.60;;;;;;5051555;28;20219;-41
2022/05/05 07:14:12;;;;;;;17.00;14.70;;;19.20;60.00;;;;;;5064368;28;20434;-41
2022/05/05 07:16:37;;;;;;;16.10;14.50;;;19.20;60.30;;;;;;5050086;28;20279;-41
2022/05/05 07:19:04;;;;;;;13.53;12.10;;;19.20;60.10;;;;;;5055217;28;20891;-41
2022/05/05 07:21:30;;;;;;;15.50;14.00;;;19.20;60.10;;;;;;5051410;28;20287;-41
2022/05/05 07:23:56;;;;;;;15.70;14.13;;;19.30;59.60;;;;;;5059150;28;20450;-41
2022/05/05 07:26:22;;;;;;;16.57;15.00;;;19.40;59.10;;;;;;5061269;28;20419;-41
2022/05/05 07:28:47;;;;;;;15.77;14.30;;;19.50;59.10;;;;;;5057628;28;20430;-41
2022/05/05 07:31:13;;;;;;;14.67;13.37;;;19.60;59.10;;;;;;5051161;28;20242;-41
2022/05/05 07:33:38;;;;;;;15.17;13.80;;;19.60;59.10;;;;;;5061643;28;20220;-41
2022/05/05 07:36:05;;;;;;;17.27;15.57;;;19.60;59.40;;;;;;5050345;28;20231;-41
2022/05/05 07:38:31;;;;;;;15.17;13.57;;;19.70;59.90;;;;;;5054897;28;20296;-41
2022/05/05 07:40:56;;;;;;;16.53;15.00;;;19.80;59.90;;;;;;5052795;28;20438;-42
2022/05/05 07:43:23;;;;;;;16.80;13.13;;;19.80;59.70;;;;;;5047120;28;20917;-41
2022/05/05 07:45:49;;;;;;;14.87;13.50;;;19.80;59.60;;;;;;5056320;28;20220;-41
2022/05/05 07:48:15;;;;;;;15.50;14.00;;;19.80;59.70;;;;;;5053217;28;20959;-40
2022/05/05 07:50:40;;;;;;;15.67;14.10;;;19.90;59.30;;;;;;5049367;28;20189;-41
2022/05/05 07:53:06;;;;;;;14.03;12.73;;;19.90;59.30;;;;;;5059490;28;20196;-41
2022/05/05 07:55:32;;;;;;;14.37;12.87;;;19.90;59.30;;;;;;5045850;28;20247;-41
2022/05/05 07:57:57;;;;;;;15.40;13.90;;;19.90;59.00;;;;;;5049600;28;20196;-41
2022/05/05 08:00:23;;;;;;;14.50;13.10;;;19.90;59.00;;;;;;5053711;28;20347;-41
2022/05/05 08:02:49;;;;;;;15.00;13.53;;;20.10;59.30;;;;;;5056709;28;20196;-41
2022/05/05 08:05:15;;;;;;;14.57;12.87;;;20.00;58.40;;;;;;5061577;28;20184;-41
2022/05/05 08:07:45;;;;;;;11.97;10.93;;;20.10;58.10;;;;;;5049009;28;20495;-41
2022/05/05 08:10:11;;;;;;;13.20;11.90;;;20.10;57.80;;;;;;5067601;28;20216;-41
2022/05/05 08:12:37;;;;;;;12.50;11.37;;;20.10;57.70;;;;;;5052245;28;20465;-41
2022/05/05 08:15:04;;;;;;;14.23;12.07;;;20.20;57.50;;;;;;5047385;28;20220;-41
2022/05/05 08:17:33;;;;;;;13.30;12.10;;;20.20;57.80;;;;;;5056973;28;21123;-41
2022/05/05 08:19:59;;;;;;;13.83;12.53;;;20.20;58.00;;;;;;5053111;28;20577;-41
2022/05/05 08:22:24;;;;;;;14.77;13.40;;;20.20;57.60;;;;;;5047614;28;21004;-41
2022/05/05 08:30:18;;;;;;;13.20;11.90;;;20.10;57.30;;;;;;5058207;28;20843;-41
2022/05/05 08:32:43;;;;;;;13.13;12.03;;;20.10;57.40;;;;;;5043419;28;20439;-41
2022/05/05 08:35:10;;;;;;;13.50;12.30;;;20.20;57.60;;;;;;5035069;28;20272;-41
2022/05/05 08:37:35;;;;;;;13.00;11.80;;;20.20;57.80;;;;;;5047594;28;20224;-41
2022/05/05 08:40:02;;;;;;;12.73;11.57;;;20.20;57.80;;;;;;5049021;28;20518;-41
2022/05/05 08:42:27;;;;;;;13.10;11.87;;;20.20;58.00;;;;;;5049006;28;20723;-43
2022/05/05 08:44:53;;;;;;;12.00;10.83;;;20.20;57.60;;;;;;5054121;28;20518;-42
2022/05/05 08:47:23;;;;;;;13.90;12.30;;;20.20;57.70;;;;;;5050465;28;20211;-41
2022/05/05 08:49:49;;;;;;;13.80;11.87;;;20.30;57.70;;;;;;5050165;28;20186;-41
2022/05/05 08:52:21;;;;;;;12.93;11.60;;;20.40;57.30;;;;;;5041441;28;20867;-42
2022/05/05 08:54:48;;;;;;;13.90;12.60;;;20.40;57.20;;;;;;5049029;28;20257;-43
2022/05/05 08:57:15;;;;;;;15.33;14.00;;;20.30;57.40;;;;;;5051232;28;20939;-44
2022/05/05 08:59:40;;;;;;;14.20;13.00;;;20.30;57.70;;;;;;5056609;28;20899;-45
2022/05/05 09:02:07;;;;;;;13.00;11.60;;;20.40;57.80;;;;;;5040240;28;20439;-42
2022/05/05 09:04:33;;;;;;;13.13;10.23;;;20.50;57.40;;;;;;5050006;28;20189;-42
2022/05/05 09:06:59;;;;;;;16.83;14.50;;;20.50;57.40;;;;;;5057841;28;20443;-41
2022/05/05 09:09:31;;;;;;;15.43;11.90;;;20.60;57.40;;;;;;5056779;28;20667;-42
2022/05/05 09:12:15;;;;;;;16.03;13.27;;;20.70;57.20;;;;;;5053638;28;20192;-42
2022/05/05 09:14:44;;;;;;;13.93;11.80;;;20.90;56.60;;;;;;5055262;28;20435;-41
2022/05/05 09:17:12;;;;;;;15.07;13.00;;;21.00;56.40;;;;;;5049838;28;20457;-42
2022/05/05 09:19:40;;;;;;;16.10;14.40;;;21.00;56.40;;;;;;5046526;28;21044;-42
2022/05/05 09:22:07;;;;;;;14.20;12.80;;;21.30;56.00;;;;;;5045125;28;20953;-42
2022/05/05 09:24:35;;;;;;;15.07;13.73;;;21.60;55.50;;;;;;5045727;28;20443;-42
2022/05/05 09:27:19;;;;;;;15.30;13.70;;;21.70;55.00;;;;;;5052826;28;20521;-41
2022/05/05 09:30:08;;;;;;;15.43;13.97;;;21.80;55.20;;;;;;5052795;28;20458;-41
2022/05/05 09:32:40;;;;;;;17.00;15.60;;;22.00;54.70;;;;;;5058127;28;20453;-41
2022/05/05 09:35:19;;;;;;;14.87;13.43;;;22.00;54.00;;;;;;5049387;28;20435;-41
2022/05/05 09:37:50;;;;;;;14.90;12.77;;;21.90;54.40;;;;;;5052296;28;20443;-41
2022/05/05 09:40:18;;;;;;;17.50;15.80;;;21.90;55.00;;;;;;5049114;28;20537;-42
2022/05/05 09:42:52;;;;;;;17.70;16.10;;;22.00;55.30;;;;;;5056999;28;20764;-41
2022/05/05 09:45:19;;;;;;;18.73;17.20;;;22.00;53.40;;;;;;5059174;28;20451;-41
2022/05/05 09:47:49;;;;;;;19.37;17.40;;;22.00;53.30;;;;;;5061388;28;20445;-42
2022/05/05 09:50:16;;;;;;;16.97;15.47;;;22.00;53.20;;;;;;5055124;28;20434;-42
2022/05/05 09:58:18;;;;;;;16.47;14.87;;;22.20;53.10;;;;;;5043742;28;20470;-42
2022/05/05 10:06:30;;;;;;;20.60;18.77;;;22.60;52.80;;;;;;5054343;28;20457;-41
2022/05/05 10:09:06;;;;;;;20.00;18.07;;;22.40;51.00;;;;;;5059657;28;20431;-41
2022/05/05 10:11:33;;;;;;;20.43;18.47;;;22.40;50.90;;;;;;5054190;28;20438;-41
2022/05/05 10:14:04;;;;;;;22.20;20.20;;;22.40;51.40;;;;;;5056604;28;20553;-42
2022/05/05 10:16:31;;;;;;;21.23;19.33;;;22.20;51.50;;;;;;5068051;28;20472;-41
2022/05/05 10:18:59;;;;;;;15.57;13.57;;;22.10;51.80;;;;;;5056717;28;20530;-41
2022/05/05 10:21:58;;;;;;;17.47;15.90;;;22.10;52.60;;;;;;5050786;28;20474;-41
2022/05/05 10:24:30;;;;;;;18.00;16.30;;;22.30;53.20;;;;;;5062715;28;20439;-41
2022/05/05 10:27:03;;;;;;;16.07;14.40;;;22.30;52.80;;;;;;5064131;28;20909;-42
2022/05/05 10:29:32;;;;;;;20.07;18.07;;;22.30;52.90;;;;;;5058916;28;20491;-42
2022/05/05 10:32:16;;;;;;;18.73;17.00;;;22.60;52.80;;;;;;5063181;28;20484;-41
2022/05/05 10:35:07;;;;;;;20.00;18.20;;;22.60;51.90;;;;;;5060812;28;20446;-41
2022/05/05 10:37:37;;;;;;;21.20;19.13;;;22.60;51.90;;;;;;5055227;28;20455;-41
2022/05/05 10:40:07;;;;;;;19.93;18.20;;;22.60;51.20;;;;;;5047508;28;20493;-42
2022/05/05 10:42:51;;;;;;;21.40;19.60;;;22.70;51.10;;;;;;5054195;28;20488;-42
2022/05/05 10:45:17;;;;;;;20.80;18.90;;;22.70;51.10;;;;;;5055262;28;20434;-41
2022/05/05 10:47:58;;;;;;;18.60;16.90;;;22.60;51.10;;;;;;5057754;28;20997;-41
2022/05/05 10:50:27;;;;;;;19.37;17.57;;;22.60;51.50;;;;;;5037404;28;20447;-42
2022/05/05 10:52:53;;;;;;;21.73;19.43;;;22.60;52.40;;;;;;5055765;28;20447;-42
2022/05/05 10:55:48;;;;;;;17.80;16.27;;;22.60;51.70;;;;;;5059022;28;20438;-41
2022/05/05 10:58:52;;;;;;;19.27;17.57;;;22.50;51.80;;;;;;5050208;28;20534;-42
2022/05/05 11:01:17;;;;;;;19.10;17.50;;;22.50;51.20;;;;;;5062553;28;20545;-42
2022/05/05 11:04:23;;;;;;;19.47;17.57;;;22.50;51.40;;;;;;5055981;28;20564;-42
2022/05/05 11:07:21;;;;;;;20.43;18.27;;;22.50;51.70;;;;;;5048793;28;20625;-42
2022/05/05 11:09:47;;;;;;;18.60;16.80;;;22.50;51.20;;;;;;5062382;28;20513;-41
2022/05/05 11:12:17;;;;;;;21.97;19.97;;;22.50;51.30;;;;;;5058069;28;20515;-42
2022/05/05 11:23:26;;;;;;;21.03;19.00;;;22.50;51.00;;;;;;5060928;28;21040;-42
2022/05/05 11:25:54;;;;;;;22.80;20.67;;;22.50;51.50;;;;;;5050572;28;20533;-42
2022/05/05 11:28:20;;;;;;;22.47;20.30;;;22.50;51.70;;;;;;5051361;28;20196;-41
2022/05/05 11:30:46;;;;;;;24.10;21.80;;;22.50;51.10;;;;;;5047531;28;20444;-41
2022/05/05 11:33:11;;;;;;;23.53;21.03;;;22.40;50.90;;;;;;5066290;28;20772;-41
2022/05/05 11:35:37;;;;;;;23.57;21.40;;;22.40;51.00;;;;;;5053491;28;20478;-43
2022/05/05 11:38:08;;;;;;;24.50;22.10;;;22.50;51.50;;;;;;5056906;28;20654;-42
2022/05/05 11:40:35;;;;;;;26.07;23.40;;;22.40;51.90;;;;;;5048425;28;20311;-41
2022/05/05 11:45:53;;;;;;;22.90;20.90;;;22.40;51.60;;;;;;5043499;28;20451;-42
2022/05/05 11:48:19;;;;;;;26.90;24.30;;;22.50;51.80;;;;;;5054182;28;20436;-43
2022/05/05 11:50:45;;;;;;;24.47;22.27;;;22.50;51.50;;;;;;5044487;28;21362;-43
2022/05/05 11:53:17;;;;;;;24.13;21.80;;;22.40;52.60;;;;;;5050244;28;20419;-44
2022/05/05 11:55:45;;;;;;;26.23;23.70;;;22.40;52.80;;;;;;5052808;28;20932;-43
2022/05/05 12:01:36;;;;;;;25.53;23.17;;;22.40;52.70;;;;;;5054564;28;20449;-42
2022/05/05 12:04:00;;;;;;;25.67;23.47;;;22.50;53.20;;;;;;5051523;28;20605;-41
2022/05/05 12:06:26;;;;;;;23.77;21.67;;;22.50;53.10;;;;;;5056652;28;21055;-41
2022/05/05 12:08:53;;;;;;;24.37;22.00;;;22.50;52.90;;;;;;5061501;28;20525;-41
2022/05/05 12:11:19;;;;;;;26.10;23.53;;;22.50;53.40;;;;;;5063783;28;20482;-41
2022/05/05 12:13:44;;;;;;;25.87;23.53;;;22.50;54.00;;;;;;5055672;28;20493;-41
2022/05/05 12:16:13;;;;;;;27.63;24.83;;;22.50;54.40;;;;;;5051594;28;20207;-41
2022/05/05 12:18:51;;;;;;;25.70;23.60;;;22.40;53.90;;;;;;5056966;28;20232;-42
2022/05/05 12:21:25;;;;;;;26.40;24.00;;;22.40;54.30;;;;;;5052441;28;20450;-41
2022/05/05 12:24:00;;;;;;;27.07;24.47;;;22.50;54.50;;;;;;5043775;28;20469;-42
2022/05/05 12:26:30;;;;;;;28.30;25.43;;;22.50;54.80;;;;;;5056575;28;20462;-42
2022/05/05 12:28:56;;;;;;;27.50;25.10;;;22.50;55.10;;;;;;5054140;28;20528;-42
2022/05/05 12:31:26;;;;;;;28.97;26.30;;;22.40;55.20;;;;;;5038431;28;20478;-42
2022/05/05 12:33:51;;;;;;;28.90;26.00;;;22.50;55.80;;;;;;5053217;28;20192;-42
2022/05/05 12:36:18;;;;;;;26.47;24.00;;;22.60;56.60;;;;;;5041414;28;20450;-42
2022/05/05 12:38:43;;;;;;;28.40;25.70;;;22.60;56.50;;;;;;5049695;28;20199;-42
2022/05/05 12:41:10;;;;;;;27.07;24.57;;;22.60;55.50;;;;;;5054921;28;20437;-43
2022/05/05 12:43:36;;;;;;;27.00;24.30;;;22.70;55.80;;;;;;5053239;28;20946;-42
2022/05/05 12:46:03;;;;;;;28.87;25.80;;;22.80;55.30;;;;;;5062116;28;20454;-43
2022/05/05 12:48:29;;;;;;;28.00;25.00;;;22.80;54.80;;;;;;5050942;28;20489;-42
2022/05/05 12:50:55;;;;;;;36.90;28.10;;;23.10;54.10;;;;;;5045830;28;20525;-42
2022/05/05 13:01:46;;;;;;;32.10;26.20;;;23.50;52.10;;;;;;5045877;28;20445;-43
2022/05/05 13:04:15;;;;;;;26.57;24.07;;;23.70;52.10;;;;;;5046954;28;20472;-44
2022/05/05 13:06:48;;;;;;;26.80;23.87;;;23.90;51.80;;;;;;5056150;28;20483;-44
2022/05/05 13:09:14;;;;;;;28.40;25.70;;;24.00;51.50;;;;;;5044519;28;20450;-41
2022/05/05 13:11:42;;;;;;;28.47;25.67;;;23.90;51.40;;;;;;5056992;28;20450;-42
2022/05/05 13:14:07;;;;;;;24.93;22.50;;;23.80;51.50;;;;;;5061007;28;20449;-42
2022/05/05 13:16:34;;;;;;;27.33;24.73;;;23.80;51.70;;;;;;5047855;28;20438;-42
2022/05/05 13:19:04;;;;;;;26.77;23.97;;;23.70;51.50;;;;;;5049532;28;20229;-41
2022/05/05 13:21:32;;;;;;;28.03;25.00;;;23.70;51.40;;;;;;5057894;28;20474;-42
2022/05/05 13:23:57;;;;;;;28.57;25.43;;;23.50;51.80;;;;;;5049701;28;20422;-41
2022/05/05 13:26:23;;;;;;;27.70;24.97;;;23.20;52.90;;;;;;5050335;28;20419;-42
2022/05/05 13:28:49;;;;;;;28.57;25.77;;;23.30;52.40;;;;;;5056062;28;20194;-41
2022/05/05 13:31:14;;;;;;;29.77;23.57;;;23.30;52.60;;;;;;5053839;28;20214;-42